CYAH

La Grande-4 Airport

ICAO Code CYAH
IATA Code YAH
Name La Grande-4 Airport
Location La Grande-4, Quebec, CA
Elevation 1005 Feet / 306.3 Meters
Latitude 53.75472222
Longitude -73.67527778
METAR CYAH 080600Z AUTO 07004KT 9SM CLR M02/M07 A3001 RMK SLP181
Extra information Display Charts and CFS
Display NOTAMS
Runway Length Width Surface Elevation
09 5009 ft 150 ft GRAVEL 993 ft
27 5009 ft 150 ft GRAVEL 1002 ft